sensor_id;sensor_type;location;lat;lon;timestamp;pressure;altitude;pressure_sealevel;temperature;humidity
23241;BME280;11789;53.482;9.862;2023-04-08T00:01:31;102438.59;;;5.49;100.00
23241;BME280;11789;53.482;9.862;2023-04-08T00:03:57;102439.41;;;5.47;100.00
23241;BME280;11789;53.482;9.862;2023-04-08T00:06:22;102435.94;;;5.47;100.00
23241;BME280;11789;53.482;9.862;2023-04-08T00:08:48;102439.22;;;5.43;100.00
23241;BME280;11789;53.482;9.862;2023-04-08T00:11:13;102437.38;;;5.40;100.00
23241;BME280;11789;53.482;9.862;2023-04-08T00:13:39;102437.44;;;5.42;100.00
23241;BME280;11789;53.482;9.862;2023-04-08T00:16:04;102440.91;;;5.42;100.00
23241;BME280;11789;53.482;9.862;2023-04-08T00:18:30;102442.56;;;5.42;100.00
23241;BME280;11789;53.482;9.862;2023-04-08T00:20:55;102442.56;;;5.42;100.00
23241;BME280;11789;53.482;9.862;2023-04-08T00:23:21;102441.84;;;5.44;100.00
23241;BME280;11789;53.482;9.862;2023-04-08T00:25:47;102446.16;;;5.45;100.00
23241;BME280;11789;53.482;9.862;2023-04-08T00:28:13;102449.75;;;5.49;100.00
23241;BME280;11789;53.482;9.862;2023-04-08T00:30:38;102455.75;;;5.50;100.00
23241;BME280;11789;53.482;9.862;2023-04-08T00:33:04;102452.38;;;5.51;100.00
23241;BME280;11789;53.482;9.862;2023-04-08T00:35:29;102454.94;;;5.51;100.00
23241;BME280;11789;53.482;9.862;2023-04-08T00:37:54;102454.00;;;5.49;100.00
23241;BME280;11789;53.482;9.862;2023-04-08T00:40:20;102452.16;;;5.46;100.00
23241;BME280;11789;53.482;9.862;2023-04-08T00:42:45;102450.47;;;5.46;100.00
23241;BME280;11789;53.482;9.862;2023-04-08T00:45:12;102448.00;;;5.48;100.00
23241;BME280;11789;53.482;9.862;2023-04-08T00:47:37;102460.06;;;5.51;100.00
23241;BME280;11789;53.482;9.862;2023-04-08T00:50:07;102455.91;;;5.53;100.00
23241;BME280;11789;53.482;9.862;2023-04-08T00:52:32;102457.50;;;5.51;100.00
23241;BME280;11789;53.482;9.862;2023-04-08T00:54:58;102457.56;;;5.52;100.00
23241;BME280;11789;53.482;9.862;2023-04-08T00:57:23;102456.78;;;5.53;100.00
23241;BME280;11789;53.482;9.862;2023-04-08T00:59:49;102454.06;;;5.50;100.00
23241;BME280;11789;53.482;9.862;2023-04-08T01:05:03;102459.94;;;5.47;100.00
23241;BME280;11789;53.482;9.862;2023-04-08T01:07:36;102455.47;;;5.43;100.00
23241;BME280;11789;53.482;9.862;2023-04-08T01:10:05;102454.59;;;5.43;100.00
23241;BME280;11789;53.482;9.862;2023-04-08T01:12:36;102450.41;;;5.45;100.00
23241;BME280;11789;53.482;9.862;2023-04-08T01:15:07;102449.59;;;5.46;100.00
23241;BME280;11789;53.482;9.862;2023-04-08T01:17:34;102453.63;;;5.41;100.00
23241;BME280;11789;53.482;9.862;2023-04-08T01:20:03;102453.56;;;5.39;100.00
23241;BME280;11789;53.482;9.862;2023-04-08T01:25:32;102458.16;;;5.46;100.00
23241;BME280;11789;53.482;9.862;2023-04-08T01:28:10;102453.91;;;5.47;100.00
23241;BME280;11789;53.482;9.862;2023-04-08T01:30:40;102445.34;;;5.46;100.00
23241;BME280;11789;53.482;9.862;2023-04-08T01:33:09;102447.13;;;5.47;100.00
23241;BME280;11789;53.482;9.862;2023-04-08T01:35:36;102447.19;;;5.49;100.00
23241;BME280;11789;53.482;9.862;2023-04-08T01:38:02;102449.75;;;5.49;100.00
23241;BME280;11789;53.482;9.862;2023-04-08T01:40:29;102437.72;;;5.48;100.00
23241;BME280;11789;53.482;9.862;2023-04-08T01:42:57;102449.75;;;5.49;100.00
23241;BME280;11789;53.482;9.862;2023-04-08T01:45:24;102439.53;;;5.51;100.00
23241;BME280;11789;53.482;9.862;2023-04-08T01:47:50;102444.72;;;5.52;100.00
23241;BME280;11789;53.482;9.862;2023-04-08T01:50:17;102442.16;;;5.52;100.00
23241;BME280;11789;53.482;9.862;2023-04-08T01:52:44;102446.50;;;5.53;100.00
23241;BME280;11789;53.482;9.862;2023-04-08T01:55:10;102449.06;;;5.53;100.00
23241;BME280;11789;53.482;9.862;2023-04-08T01:57:37;102443.06;;;5.53;100.00
23241;BME280;11789;53.482;9.862;2023-04-08T02:00:08;102443.19;;;5.56;100.00
23241;BME280;11789;53.482;9.862;2023-04-08T02:02:37;102442.38;;;5.57;100.00
23241;BME280;11789;53.482;9.862;2023-04-08T02:05:05;102438.00;;;5.54;100.00
23241;BME280;11789;53.482;9.862;2023-04-08T02:07:31;102428.62;;;5.55;100.00
23241;BME280;11789;53.482;9.862;2023-04-08T02:09:57;102431.31;;;5.58;100.00
23241;BME280;11789;53.482;9.862;2023-04-08T02:12:23;102430.72;;;5.63;100.00
23241;BME280;11789;53.482;9.862;2023-04-08T02:14:49;102424.88;;;5.67;100.00
23241;BME280;11789;53.482;9.862;2023-04-08T02:17:26;102428.41;;;5.69;100.00
23241;BME280;11789;53.482;9.862;2023-04-08T02:20:07;102425.03;;;5.70;100.00
23241;BME280;11789;53.482;9.862;2023-04-08T02:22:49;102430.94;;;5.68;100.00
23241;BME280;11789;53.482;9.862;2023-04-08T02:25:22;102430.13;;;5.69;100.00
23241;BME280;11789;53.482;9.862;2023-04-08T02:27:49;102432.69;;;5.69;100.00
23241;BME280;11789;53.482;9.862;2023-04-08T02:30:16;102430.16;;;5.70;100.00
23241;BME280;11789;53.482;9.862;2023-04-08T02:32:44;102432.78;;;5.72;100.00
23241;BME280;11789;53.482;9.862;2023-04-08T02:35:11;102431.03;;;5.71;100.00
23241;BME280;11789;53.482;9.862;2023-04-08T02:37:37;102421.53;;;5.68;100.00
23241;BME280;11789;53.482;9.862;2023-04-08T02:40:03;102422.25;;;5.66;100.00
23241;BME280;11789;53.482;9.862;2023-04-08T02:42:29;102419.69;;;5.66;100.00
23241;BME280;11789;53.482;9.862;2023-04-08T02:44:56;102418.75;;;5.64;100.00
23241;BME280;11789;53.482;9.862;2023-04-08T02:47:21;102421.25;;;5.62;100.00
23241;BME280;11789;53.482;9.862;2023-04-08T02:49:47;102429.75;;;5.61;100.00
23241;BME280;11789;53.482;9.862;2023-04-08T02:52:15;102434.88;;;5.61;100.00
23241;BME280;11789;53.482;9.862;2023-04-08T02:54:40;102442.78;;;5.66;100.00
23241;BME280;11789;53.482;9.862;2023-04-08T02:57:06;102435.66;;;5.59;100.00
23241;BME280;11789;53.482;9.862;2023-04-08T02:59:31;102445.91;;;5.59;100.00
23241;BME280;11789;53.482;9.862;2023-04-08T03:01:57;102439.75;;;5.55;100.00
23241;BME280;11789;53.482;9.862;2023-04-08T03:04:22;102442.31;;;5.55;100.00
23241;BME280;11789;53.482;9.862;2023-04-08T03:06:48;102439.69;;;5.54;100.00
23241;BME280;11789;53.482;9.862;2023-04-08T03:09:13;102442.25;;;5.54;100.00
23241;BME280;11789;53.482;9.862;2023-04-08T03:11:39;102444.00;;;5.55;100.00
23241;BME280;11789;53.482;9.862;2023-04-08T03:14:04;102431.19;;;5.55;100.00
23241;BME280;11789;53.482;9.862;2023-04-08T03:16:29;102442.31;;;5.55;100.00
23241;BME280;11789;53.482;9.862;2023-04-08T03:18:55;102444.00;;;5.55;100.00
23241;BME280;11789;53.482;9.862;2023-04-08T03:21:20;102445.53;;;5.51;100.00
23241;BME280;11789;53.482;9.862;2023-04-08T03:23:46;102439.47;;;5.49;100.00
23241;BME280;11789;53.482;9.862;2023-04-08T03:26:11;102447.84;;;5.45;100.00
23241;BME280;11789;53.482;9.862;2023-04-08T03:28:37;102452.09;;;5.44;100.00
23241;BME280;11789;53.482;9.862;2023-04-08T03:31:03;102446.03;;;5.42;100.00
23241;BME280;11789;53.482;9.862;2023-04-08T03:33:28;102453.72;;;5.42;100.00
23241;BME280;11789;53.482;9.862;2023-04-08T03:35:54;102451.16;;;5.42;100.00
23241;BME280;11789;53.482;9.862;2023-04-08T03:38:20;102459.78;;;5.44;100.00
23241;BME280;11789;53.482;9.862;2023-04-08T03:40:45;102460.59;;;5.43;100.00
23241;BME280;11789;53.482;9.862;2023-04-08T03:43:11;102462.34;;;5.44;100.00
23241;BME280;11789;53.482;9.862;2023-04-08T03:45:37;102453.84;;;5.45;100.00
23241;BME280;11789;53.482;9.862;2023-04-08T03:48:03;102452.97;;;5.45;100.00
23241;BME280;11789;53.482;9.862;2023-04-08T03:50:28;102460.44;;;5.40;100.00
23241;BME280;11789;53.482;9.862;2023-04-08T03:52:54;102464.53;;;5.37;100.00
23241;BME280;11789;53.482;9.862;2023-04-08T03:55:19;102459.34;;;5.35;100.00
23241;BME280;11789;53.482;9.862;2023-04-08T03:57:45;102464.37;;;5.32;100.00
23241;BME280;11789;53.482;9.862;2023-04-08T04:00:11;102468.59;;;5.32;100.00
23241;BME280;11789;53.482;9.862;2023-04-08T04:02:36;102470.97;;;5.27;100.00
23241;BME280;11789;53.482;9.862;2023-04-08T04:05:02;102479.44;;;5.26;100.00
23241;BME280;11789;53.482;9.862;2023-04-08T04:07:27;102475.00;;;5.22;100.00
23241;BME280;11789;53.482;9.862;2023-04-08T04:09:53;102479.16;;;5.20;100.00
23241;BME280;11789;53.482;9.862;2023-04-08T04:12:21;102477.63;;;5.24;100.00
23241;BME280;11789;53.482;9.862;2023-04-08T04:14:46;102470.75;;;5.23;100.00
23241;BME280;11789;53.482;9.862;2023-04-08T04:17:12;102470.75;;;5.23;100.00
23241;BME280;11789;53.482;9.862;2023-04-08T04:19:37;102475.00;;;5.22;100.00
23241;BME280;11789;53.482;9.862;2023-04-08T04:22:03;102475.13;;;5.25;100.00
23241;BME280;11789;53.482;9.862;2023-04-08T04:24:28;102480.31;;;5.27;100.00
23241;BME280;11789;53.482;9.862;2023-04-08T04:26:53;102488.91;;;5.27;100.00
23241;BME280;11789;53.482;9.862;2023-04-08T04:29:19;102485.25;;;5.22;100.00
23241;BME280;11789;53.482;9.862;2023-04-08T04:31:44;102484.13;;;5.17;100.00
23241;BME280;11789;53.482;9.862;2023-04-08T04:34:10;102490.81;;;5.13;100.00
23241;BME280;11789;53.482;9.862;2023-04-08T04:36:35;102491.69;;;5.14;100.00
23241;BME280;11789;53.482;9.862;2023-04-08T04:39:01;102493.44;;;5.15;100.00
23241;BME280;11789;53.482;9.862;2023-04-08T04:41:26;102495.84;;;5.12;100.00
23241;BME280;11789;53.482;9.862;2023-04-08T04:43:52;102496.66;;;5.11;100.00
23241;BME280;11789;53.482;9.862;2023-04-08T04:46:17;102498.34;;;5.10;100.00
23241;BME280;11789;53.482;9.862;2023-04-08T04:48:43;102501.66;;;5.08;100.00
23241;BME280;11789;53.482;9.862;2023-04-08T04:51:08;102502.38;;;5.05;100.00
23241;BME280;11789;53.482;9.862;2023-04-08T04:53:33;102514.16;;;5.02;100.00
23241;BME280;11789;53.482;9.862;2023-04-08T04:55:59;102505.31;;;4.95;100.00
23241;BME280;11789;53.482;9.862;2023-04-08T04:58:28;102518.19;;;4.97;100.00
23241;BME280;11789;53.482;9.862;2023-04-08T05:00:54;102517.31;;;4.96;100.00
23241;BME280;11789;53.482;9.862;2023-04-08T05:03:20;102529.03;;;4.91;100.00
23241;BME280;11789;53.482;9.862;2023-04-08T05:05:50;102528.00;;;4.87;100.00
23241;BME280;11789;53.482;9.862;2023-04-08T05:08:19;102524.47;;;4.85;100.00
23241;BME280;11789;53.482;9.862;2023-04-08T05:10:44;102526.09;;;4.83;100.00
23241;BME280;11789;53.482;9.862;2023-04-08T05:13:10;102526.91;;;4.82;100.00
23241;BME280;11789;53.482;9.862;2023-04-08T05:15:36;102527.84;;;4.84;100.00
23241;BME280;11789;53.482;9.862;2023-04-08T05:18:01;102522.88;;;4.87;100.00
23241;BME280;11789;53.482;9.862;2023-04-08T05:20:27;102526.41;;;4.89;100.00
23241;BME280;11789;53.482;9.862;2023-04-08T05:22:52;102526.41;;;4.89;100.00
23241;BME280;11789;53.482;9.862;2023-04-08T05:25:18;102528.31;;;4.93;100.00
23241;BME280;11789;53.482;9.862;2023-04-08T05:27:43;102528.31;;;4.93;100.00
23241;BME280;11789;53.482;9.862;2023-04-08T05:30:10;102529.91;;;4.91;100.00
23241;BME280;11789;53.482;9.862;2023-04-08T05:32:35;102536.72;;;4.91;100.00
23241;BME280;11789;53.482;9.862;2023-04-08T05:35:02;102531.53;;;4.89;100.00
23241;BME280;11789;53.482;9.862;2023-04-08T05:37:28;102539.03;;;4.86;100.00
23241;BME280;11789;53.482;9.862;2023-04-08T05:39:53;102528.72;;;4.85;100.00
23241;BME280;11789;53.482;9.862;2023-04-08T05:42:19;102541.59;;;4.86;100.00
23241;BME280;11789;53.482;9.862;2023-04-08T05:44:44;102538.34;;;4.89;100.00
23241;BME280;11789;53.482;9.862;2023-04-08T05:47:09;102541.19;;;4.95;100.00
23241;BME280;11789;53.482;9.862;2023-04-08T05:49:35;102540.47;;;4.98;100.00
23241;BME280;11789;53.482;9.862;2023-04-08T05:52:00;102551.59;;;4.98;100.00
23241;BME280;11789;53.482;9.862;2023-04-08T05:54:26;102550.72;;;4.98;100.00
23241;BME280;11789;53.482;9.862;2023-04-08T05:56:52;102559.28;;;4.98;100.00
23241;BME280;11789;53.482;9.862;2023-04-08T05:59:17;102563.38;;;4.94;100.00
23241;BME280;11789;53.482;9.862;2023-04-08T06:01:43;102555.63;;;4.93;100.00
23241;BME280;11789;53.482;9.862;2023-04-08T06:04:08;102551.31;;;4.92;100.00
23241;BME280;11789;53.482;9.862;2023-04-08T06:06:33;102558.09;;;4.91;100.00
23241;BME280;11789;53.482;9.862;2023-04-08T06:08:59;102555.22;;;4.85;100.00
23241;BME280;11789;53.482;9.862;2023-04-08T06:11:24;102561.97;;;4.83;100.00
23241;BME280;11789;53.482;9.862;2023-04-08T06:13:50;102565.66;;;4.88;100.00
23241;BME280;11789;53.482;9.862;2023-04-08T06:16:16;102569.16;;;4.90;100.00
23241;BME280;11789;53.482;9.862;2023-04-08T06:18:42;102564.84;;;4.89;100.00
23241;BME280;11789;53.482;9.862;2023-04-08T06:21:07;102570.13;;;4.92;100.00
23241;BME280;11789;53.482;9.862;2023-04-08T06:23:33;102570.03;;;4.91;100.00
23241;BME280;11789;53.482;9.862;2023-04-08T06:25:58;102579.56;;;4.93;100.00
23241;BME280;11789;53.482;9.862;2023-04-08T06:28:24;102570.34;;;4.97;100.00
23241;BME280;11789;53.482;9.862;2023-04-08T06:30:49;102582.34;;;4.98;100.00
23241;BME280;11789;53.482;9.862;2023-04-08T06:33:15;102580.50;;;4.95;100.00
23241;BME280;11789;53.482;9.862;2023-04-08T06:35:40;102592.63;;;4.98;100.00
23241;BME280;11789;53.482;9.862;2023-04-08T06:38:06;102598.63;;;4.99;100.00
23241;BME280;11789;53.482;9.862;2023-04-08T06:40:31;102590.13;;;5.00;100.00
23241;BME280;11789;53.482;9.862;2023-04-08T06:42:56;102595.25;;;5.00;100.00
23241;BME280;11789;53.482;9.862;2023-04-08T06:45:22;102593.50;;;4.99;100.00
23241;BME280;11789;53.482;9.862;2023-04-08T06:47:47;102605.50;;;5.00;100.00
23241;BME280;11789;53.482;9.862;2023-04-08T06:50:13;102604.44;;;4.96;100.00
23241;BME280;11789;53.482;9.862;2023-04-08T06:52:38;102612.94;;;4.95;100.00
23241;BME280;11789;53.482;9.862;2023-04-08T06:55:04;102614.00;;;4.99;100.00
23241;BME280;11789;53.482;9.862;2023-04-08T06:57:30;102608.88;;;4.99;100.00
23241;BME280;11789;53.482;9.862;2023-04-08T06:59:55;102614.00;;;4.99;100.00
23241;BME280;11789;53.482;9.862;2023-04-08T07:02:21;102607.34;;;5.02;100.00
23241;BME280;11789;53.482;9.862;2023-04-08T07:04:47;102614.47;;;5.08;100.00
23241;BME280;11789;53.482;9.862;2023-04-08T07:07:13;102609.34;;;5.08;100.00
23241;BME280;11789;53.482;9.862;2023-04-08T07:09:38;102614.47;;;5.08;100.00
23241;BME280;11789;53.482;9.862;2023-04-08T07:12:05;102618.59;;;5.06;100.00
23241;BME280;11789;53.482;9.862;2023-04-08T07:14:31;102618.78;;;5.09;100.00
23241;BME280;11789;53.482;9.862;2023-04-08T07:16:56;102614.53;;;5.09;100.00
23241;BME280;11789;53.482;9.862;2023-04-08T07:19:22;102622.16;;;5.08;100.00
23241;BME280;11789;53.482;9.862;2023-04-08T07:21:48;102618.12;;;5.13;100.00
23241;BME280;11789;53.482;9.862;2023-04-08T07:24:14;102624.25;;;5.16;100.00
23241;BME280;11789;53.482;9.862;2023-04-08T07:26:40;102617.53;;;5.18;100.00
23241;BME280;11789;53.482;9.862;2023-04-08T07:29:05;102627.16;;;5.23;100.00
23241;BME280;11789;53.482;9.862;2023-04-08T07:31:32;102619.59;;;5.26;100.00
23241;BME280;11789;53.482;9.862;2023-04-08T07:33:57;102623.03;;;5.26;100.00
23241;BME280;11789;53.482;9.862;2023-04-08T07:36:23;102635.16;;;5.29;100.00
23241;BME280;11789;53.482;9.862;2023-04-08T07:38:48;102633.28;;;5.26;100.00
23241;BME280;11789;53.482;9.862;2023-04-08T07:41:14;102630.09;;;5.30;100.00
23241;BME280;11789;53.482;9.862;2023-04-08T07:43:39;102633.63;;;5.32;100.00
23241;BME280;11789;53.482;9.862;2023-04-08T07:46:05;102631.59;;;5.27;100.00
23241;BME280;11789;53.482;9.862;2023-04-08T07:48:32;102639.63;;;5.33;100.00
23241;BME280;11789;53.482;9.862;2023-04-08T07:50:57;102644.81;;;5.34;100.00
23241;BME280;11789;53.482;9.862;2023-04-08T07:53:26;102642.25;;;5.34;100.00
23241;BME280;11789;53.482;9.862;2023-04-08T07:55:52;102641.44;;;5.35;100.00
23241;BME280;11789;53.482;9.862;2023-04-08T07:58:18;102645.28;;;5.43;100.00
23241;BME280;11789;53.482;9.862;2023-04-08T08:00:44;102647.03;;;5.44;100.00
23241;BME280;11789;53.482;9.862;2023-04-08T08:03:09;102650.53;;;5.46;100.00
23241;BME280;11789;53.482;9.862;2023-04-08T08:05:35;102650.53;;;5.46;100.00
23241;BME280;11789;53.482;9.862;2023-04-08T08:08:01;102654.94;;;5.49;100.00
23241;BME280;11789;53.482;9.862;2023-04-08T08:10:27;102657.44;;;5.47;100.00
23241;BME280;11789;53.482;9.862;2023-04-08T08:12:52;102652.16;;;5.44;100.00
23241;BME280;11789;53.482;9.862;2023-04-08T08:15:18;102659.44;;;5.53;100.00
23241;BME280;11789;53.482;9.862;2023-04-08T08:17:43;102668.06;;;5.55;100.00
23241;BME280;11789;53.482;9.862;2023-04-08T08:20:09;102660.22;;;5.52;100.00
23241;BME280;11789;53.482;9.862;2023-04-08T08:22:35;102656.06;;;5.54;100.00
23241;BME280;11789;53.482;9.862;2023-04-08T08:25:00;102664.03;;;5.60;100.00
23241;BME280;11789;53.482;9.862;2023-04-08T08:27:26;102658.41;;;5.50;100.00
23241;BME280;11789;53.482;9.862;2023-04-08T08:29:51;102665.34;;;5.52;100.00
23241;BME280;11789;53.482;9.862;2023-04-08T08:32:17;102669.09;;;5.59;100.00
23241;BME280;11789;53.482;9.862;2023-04-08T08:34:43;102667.72;;;5.65;100.00
23241;BME280;11789;53.482;9.862;2023-04-08T08:37:08;102671.22;;;5.67;100.00
23241;BME280;11789;53.482;9.862;2023-04-08T08:39:33;102666.84;;;5.65;100.00
23241;BME280;11789;53.482;9.862;2023-04-08T08:41:59;102669.69;;;5.71;100.00
23241;BME280;11789;53.482;9.862;2023-04-08T08:44:25;102671.38;;;5.70;100.00
23241;BME280;11789;53.482;9.862;2023-04-08T08:46:51;102676.50;;;5.70;100.00
23241;BME280;11789;53.482;9.862;2023-04-08T08:49:17;102679.47;;;5.78;100.00
23241;BME280;11789;53.482;9.862;2023-04-08T08:51:45;102686.12;;;5.75;100.00
23241;BME280;11789;53.482;9.862;2023-04-08T08:54:11;102686.53;;;5.66;100.00
23241;BME280;11789;53.482;9.862;2023-04-08T08:56:37;102686.94;;;5.73;100.00
23241;BME280;11789;53.482;9.862;2023-04-08T08:59:02;102688.25;;;5.83;100.00
23241;BME280;11789;53.482;9.862;2023-04-08T09:01:29;102687.56;;;5.87;100.00
23241;BME280;11789;53.482;9.862;2023-04-08T09:04:11;102696.09;;;5.86;100.00
23241;BME280;11789;53.482;9.862;2023-04-08T09:06:37;102688.25;;;5.83;100.00
23241;BME280;11789;53.482;9.862;2023-04-08T09:09:03;102698.66;;;5.86;100.00
23241;BME280;11789;53.482;9.862;2023-04-08T09:11:38;102696.50;;;5.78;100.00
23241;BME280;11789;53.482;9.862;2023-04-08T09:14:07;102697.56;;;5.81;100.00
23241;BME280;11789;53.482;9.862;2023-04-08T09:16:41;102700.28;;;5.84;100.00
23241;BME280;11789;53.482;9.862;2023-04-08T09:19:08;102700.75;;;5.93;100.00
23241;BME280;11789;53.482;9.862;2023-04-08T09:21:35;102696.03;;;6.03;100.00
23241;BME280;11789;53.482;9.862;2023-04-08T09:24:00;102693.63;;;6.06;100.00
23241;BME280;11789;53.482;9.862;2023-04-08T09:26:26;102704.81;;;6.08;100.00
23241;BME280;11789;53.482;9.862;2023-04-08T09:29:05;102702.34;;;6.09;100.00
23241;BME280;11789;53.482;9.862;2023-04-08T09:31:33;102711.44;;;6.03;100.00
23241;BME280;11789;53.482;9.862;2023-04-08T09:34:17;102712.25;;;6.02;100.00
23241;BME280;11789;53.482;9.862;2023-04-08T09:36:45;102714.16;;;6.06;100.00
23241;BME280;11789;53.482;9.862;2023-04-08T09:39:11;102708.97;;;6.04;100.00
23241;BME280;11789;53.482;9.862;2023-04-08T09:41:37;102719.22;;;6.04;100.00
23241;BME280;11789;53.482;9.862;2023-04-08T09:44:05;102712.53;;;6.08;100.00
23241;BME280;11789;53.482;9.862;2023-04-08T09:46:32;102711.06;;;6.13;100.00
23241;BME280;11789;53.482;9.862;2023-04-08T09:49:09;102716.28;;;6.14;100.00
23241;BME280;11789;53.482;9.862;2023-04-08T09:51:44;102710.56;;;6.20;100.00
23241;BME280;11789;53.482;9.862;2023-04-08T09:54:14;102714.34;;;6.28;100.00
23241;BME280;11789;53.482;9.862;2023-04-08T09:56:48;102718.75;;;6.31;100.00
23241;BME280;11789;53.482;9.862;2023-04-08T09:59:16;102719.62;;;6.31;100.00
23241;BME280;11789;53.482;9.862;2023-04-08T10:01:49;102709.56;;;6.36;100.00
23241;BME280;11789;53.482;9.862;2023-04-08T10:04:19;102712.34;;;6.40;100.00
23241;BME280;11789;53.482;9.862;2023-04-08T10:07:02;102710.72;;;6.42;100.00
23241;BME280;11789;53.482;9.862;2023-04-08T10:09:28;102720.94;;;6.41;100.00
23241;BME280;11789;53.482;9.862;2023-04-08T10:11:54;102710.94;;;6.47;100.00
23241;BME280;11789;53.482;9.862;2023-04-08T10:14:20;102716.03;;;6.45;100.00
23241;BME280;11789;53.482;9.862;2023-04-08T10:16:46;102708.09;;;6.41;100.00
23241;BME280;11789;53.482;9.862;2023-04-08T10:19:37;102708.25;;;6.44;100.00
23241;BME280;11789;53.482;9.862;2023-04-08T10:25:34;102711.00;;;6.48;100.00
23241;BME280;11789;53.482;9.862;2023-04-08T10:27:59;102708.78;;;6.56;100.00
23241;BME280;11789;53.482;9.862;2023-04-08T10:32:58;102717.97;;;6.51;100.00
23241;BME280;11789;53.482;9.862;2023-04-08T10:35:31;102720.19;;;6.43;100.00
23241;BME280;11789;53.482;9.862;2023-04-08T10:37:59;102721.81;;;6.41;100.00
23241;BME280;11789;53.482;9.862;2023-04-08T10:40:25;102725.31;;;6.43;100.00
23241;BME280;11789;53.482;9.862;2023-04-08T10:42:57;102714.78;;;6.37;100.00
23241;BME280;11789;53.482;9.862;2023-04-08T10:45:24;102716.06;;;6.47;100.00
23241;BME280;11789;53.482;9.862;2023-04-08T10:47:49;102721.50;;;6.53;100.00
23241;BME280;11789;53.482;9.862;2023-04-08T10:50:19;102724.16;;;6.55;100.00
23241;BME280;11789;53.482;9.862;2023-04-08T10:52:49;102725.53;;;6.48;100.00
23241;BME280;11789;53.482;9.862;2023-04-08T10:55:22;102718.72;;;6.48;100.00
23241;BME280;11789;53.482;9.862;2023-04-08T10:57:49;102730.22;;;6.57;100.00
23241;BME280;11789;53.482;9.862;2023-04-08T11:00:27;102722.09;;;6.47;100.00
23241;BME280;11789;53.482;9.862;2023-04-08T11:03:00;102730.00;;;6.52;100.00
23241;BME280;11789;53.482;9.862;2023-04-08T11:05:25;102727.38;;;6.50;100.00
23241;BME280;11789;53.482;9.862;2023-04-08T11:07:51;102727.38;;;6.50;100.00
23241;BME280;11789;53.482;9.862;2023-04-08T11:10:17;102730.06;;;6.54;100.00
23241;BME280;11789;53.482;9.862;2023-04-08T11:12:43;102732.66;;;6.54;100.00
23241;BME280;11789;53.482;9.862;2023-04-08T11:15:09;102731.56;;;6.48;100.00
23241;BME280;11789;53.482;9.862;2023-04-08T11:17:35;102735.16;;;6.52;100.00
23241;BME280;11789;53.482;9.862;2023-04-08T11:20:00;102725.75;;;6.53;100.00
23241;BME280;11789;53.482;9.862;2023-04-08T11:22:30;102722.66;;;6.60;100.00
23241;BME280;11789;53.482;9.862;2023-04-08T11:24:58;102723.88;;;6.68;100.00
23241;BME280;11789;53.482;9.862;2023-04-08T11:27:24;102724.84;;;6.70;100.00
23241;BME280;11789;53.482;9.862;2023-04-08T11:29:52;102728.97;;;6.66;100.00
23241;BME280;11789;53.482;9.862;2023-04-08T11:32:21;102721.41;;;6.69;100.00
23241;BME280;11789;53.482;9.862;2023-04-08T11:34:48;102720.03;;;6.78;100.00
23241;BME280;11789;53.482;9.862;2023-04-08T11:37:13;102727.69;;;6.76;100.00
23241;BME280;11789;53.482;9.862;2023-04-08T11:39:42;102728.56;;;6.76;100.00
23241;BME280;11789;53.482;9.862;2023-04-08T11:42:08;102733.91;;;6.81;100.00
23241;BME280;11789;53.482;9.862;2023-04-08T11:44:34;102733.62;;;6.75;100.00
23241;BME280;11789;53.482;9.862;2023-04-08T11:46:59;102728.97;;;6.66;100.00
23241;BME280;11789;53.482;9.862;2023-04-08T11:49:26;102733.00;;;6.61;100.00
23241;BME280;11789;53.482;9.862;2023-04-08T11:51:56;102728.25;;;6.51;100.00
23241;BME280;11789;53.482;9.862;2023-04-08T11:54:30;102737.34;;;6.62;100.00
23241;BME280;11789;53.482;9.862;2023-04-08T11:56:57;102733.22;;;6.66;100.00
23241;BME280;11789;53.482;9.862;2023-04-08T11:59:25;102730.59;;;6.64;100.00
23241;BME280;11789;53.482;9.862;2023-04-08T12:01:51;102739.09;;;6.63;100.00
23241;BME280;11789;53.482;9.862;2023-04-08T12:04:17;102739.09;;;6.63;100.00
23241;BME280;11789;53.482;9.862;2023-04-08T12:06:43;102733.06;;;6.63;100.00
23241;BME280;11789;53.482;9.862;2023-04-08T12:09:14;102734.09;;;6.66;100.00
23241;BME280;11789;53.482;9.862;2023-04-08T12:11:40;102734.97;;;6.67;100.00
23241;BME280;11789;53.482;9.862;2023-04-08T12:14:05;102744.38;;;6.66;100.00
23241;BME280;11789;53.482;9.862;2023-04-08T12:16:31;102745.19;;;6.65;100.00
23241;BME280;11789;53.482;9.862;2023-04-08T12:18:56;102741.59;;;6.62;100.00
23241;BME280;11789;53.482;9.862;2023-04-08T12:21:22;102735.37;;;6.57;100.00
23241;BME280;11789;53.482;9.862;2023-04-08T12:23:47;102744.97;;;6.61;100.00
23241;BME280;11789;53.482;9.862;2023-04-08T12:26:13;102752.53;;;6.58;100.00
23241;BME280;11789;53.482;9.862;2023-04-08T12:28:38;102745.09;;;6.64;100.00
23241;BME280;11789;53.482;9.862;2023-04-08T12:31:04;102741.59;;;6.62;100.00
23241;BME280;11789;53.482;9.862;2023-04-08T12:33:30;102735.91;;;6.69;100.00
23241;BME280;11789;53.482;9.862;2023-04-08T12:35:55;102748.03;;;6.71;100.00
23241;BME280;11789;53.482;9.862;2023-04-08T12:38:23;102736.28;;;6.76;100.00
23241;BME280;11789;53.482;9.862;2023-04-08T12:40:49;102743.44;;;6.84;100.00
23241;BME280;11789;53.482;9.862;2023-04-08T12:43:15;102739.94;;;6.82;100.00
23241;BME280;11789;53.482;9.862;2023-04-08T12:45:40;102737.34;;;6.82;100.00
23241;BME280;11789;53.482;9.862;2023-04-08T12:48:06;102740.12;;;6.86;100.00
23241;BME280;11789;53.482;9.862;2023-04-08T12:50:32;102732.53;;;6.89;100.00
23241;BME280;11789;53.482;9.862;2023-04-08T12:52:57;102741.81;;;6.86;100.00
23241;BME280;11789;53.482;9.862;2023-04-08T12:55:22;102740.94;;;6.85;100.00
23241;BME280;11789;53.482;9.862;2023-04-08T12:57:51;102752.22;;;6.89;100.00
23241;BME280;11789;53.482;9.862;2023-04-08T13:00:17;102745.41;;;6.89;100.00